sensor_id;sensor_type;location;lat;lon;timestamp;temperature;humidity
18932;DHT22;9598;50.954;3.112;2022-10-30T00:01:57;17.30;99.90
18932;DHT22;9598;50.954;3.112;2022-10-30T00:06:59;17.20;99.90
18932;DHT22;9598;50.954;3.112;2022-10-30T00:12:03;17.20;99.90
18932;DHT22;9598;50.954;3.112;2022-10-30T00:17:05;17.20;99.90
18932;DHT22;9598;50.954;3.112;2022-10-30T00:22:08;17.10;99.90
18932;DHT22;9598;50.954;3.112;2022-10-30T00:27:11;17.00;99.90
18932;DHT22;9598;50.954;3.112;2022-10-30T00:32:13;17.00;99.90
18932;DHT22;9598;50.954;3.112;2022-10-30T00:37:17;16.90;99.90
18932;DHT22;9598;50.954;3.112;2022-10-30T00:42:21;16.90;99.90
18932;DHT22;9598;50.954;3.112;2022-10-30T00:47:27;16.90;99.90
18932;DHT22;9598;50.954;3.112;2022-10-30T00:52:33;16.80;99.90
18932;DHT22;9598;50.954;3.112;2022-10-30T00:57:39;16.80;99.90
18932;DHT22;9598;50.954;3.112;2022-10-30T01:02:44;16.80;99.90
18932;DHT22;9598;50.954;3.112;2022-10-30T01:07:46;16.80;99.90
18932;DHT22;9598;50.954;3.112;2022-10-30T01:12:51;16.70;99.90
18932;DHT22;9598;50.954;3.112;2022-10-30T01:18:06;16.70;99.90
18932;DHT22;9598;50.954;3.112;2022-10-30T01:23:23;16.60;99.90
18932;DHT22;9598;50.954;3.112;2022-10-30T01:28:39;16.60;99.90
18932;DHT22;9598;50.954;3.112;2022-10-30T01:33:59;16.60;99.90
18932;DHT22;9598;50.954;3.112;2022-10-30T01:39:06;16.50;99.90
18932;DHT22;9598;50.954;3.112;2022-10-30T01:44:14;16.50;99.90
18932;DHT22;9598;50.954;3.112;2022-10-30T01:54:59;16.30;99.90
18932;DHT22;9598;50.954;3.112;2022-10-30T02:00:09;16.30;99.90
18932;DHT22;9598;50.954;3.112;2022-10-30T02:05:20;16.30;99.90
18932;DHT22;9598;50.954;3.112;2022-10-30T02:10:29;16.30;99.90
18932;DHT22;9598;50.954;3.112;2022-10-30T02:15:34;16.30;99.90
18932;DHT22;9598;50.954;3.112;2022-10-30T02:20:37;16.30;99.90
18932;DHT22;9598;50.954;3.112;2022-10-30T02:25:40;16.30;99.90
18932;DHT22;9598;50.954;3.112;2022-10-30T02:30:43;16.30;99.90
18932;DHT22;9598;50.954;3.112;2022-10-30T02:35:47;16.20;99.90
18932;DHT22;9598;50.954;3.112;2022-10-30T02:40:49;16.20;99.90
18932;DHT22;9598;50.954;3.112;2022-10-30T02:45:51;16.10;99.90
18932;DHT22;9598;50.954;3.112;2022-10-30T02:50:59;16.10;99.90
18932;DHT22;9598;50.954;3.112;2022-10-30T02:56:03;16.10;99.90
18932;DHT22;9598;50.954;3.112;2022-10-30T03:01:07;16.10;99.90
18932;DHT22;9598;50.954;3.112;2022-10-30T03:06:12;16.10;99.90
18932;DHT22;9598;50.954;3.112;2022-10-30T03:11:16;16.00;99.90
18932;DHT22;9598;50.954;3.112;2022-10-30T03:16:21;16.00;99.90
18932;DHT22;9598;50.954;3.112;2022-10-30T03:21:26;16.00;99.90
18932;DHT22;9598;50.954;3.112;2022-10-30T03:26:29;16.00;99.90
18932;DHT22;9598;50.954;3.112;2022-10-30T03:31:37;15.90;99.90
18932;DHT22;9598;50.954;3.112;2022-10-30T03:36:49;15.90;99.90
18932;DHT22;9598;50.954;3.112;2022-10-30T03:41:51;15.90;99.90
18932;DHT22;9598;50.954;3.112;2022-10-30T03:46:53;15.90;99.90
18932;DHT22;9598;50.954;3.112;2022-10-30T03:52:10;15.90;99.90
18932;DHT22;9598;50.954;3.112;2022-10-30T03:57:12;15.90;99.90
18932;DHT22;9598;50.954;3.112;2022-10-30T04:02:24;15.80;99.90
18932;DHT22;9598;50.954;3.112;2022-10-30T04:07:28;15.80;99.90
18932;DHT22;9598;50.954;3.112;2022-10-30T04:12:30;15.80;99.90
18932;DHT22;9598;50.954;3.112;2022-10-30T04:17:32;15.80;99.90
18932;DHT22;9598;50.954;3.112;2022-10-30T04:22:39;15.70;99.90
18932;DHT22;9598;50.954;3.112;2022-10-30T04:27:42;15.70;99.90
18932;DHT22;9598;50.954;3.112;2022-10-30T04:32:46;15.70;99.90
18932;DHT22;9598;50.954;3.112;2022-10-30T04:37:54;15.70;99.90
18932;DHT22;9598;50.954;3.112;2022-10-30T04:42:56;15.70;99.90
18932;DHT22;9598;50.954;3.112;2022-10-30T04:48:02;15.70;99.90
18932;DHT22;9598;50.954;3.112;2022-10-30T04:53:09;15.70;99.90
18932;DHT22;9598;50.954;3.112;2022-10-30T04:58:12;15.60;99.90
18932;DHT22;9598;50.954;3.112;2022-10-30T05:03:20;15.70;99.90
18932;DHT22;9598;50.954;3.112;2022-10-30T05:08:24;15.60;99.90
18932;DHT22;9598;50.954;3.112;2022-10-30T05:13:26;15.60;99.90
18932;DHT22;9598;50.954;3.112;2022-10-30T05:18:28;15.60;99.90
18932;DHT22;9598;50.954;3.112;2022-10-30T05:23:32;15.50;99.90
18932;DHT22;9598;50.954;3.112;2022-10-30T05:28:34;15.50;99.90
18932;DHT22;9598;50.954;3.112;2022-10-30T05:33:36;15.40;99.90
18932;DHT22;9598;50.954;3.112;2022-10-30T05:38:40;15.40;99.90
18932;DHT22;9598;50.954;3.112;2022-10-30T05:43:47;15.40;99.90
18932;DHT22;9598;50.954;3.112;2022-10-30T05:48:50;15.40;99.90
18932;DHT22;9598;50.954;3.112;2022-10-30T05:53:54;15.40;99.90
18932;DHT22;9598;50.954;3.112;2022-10-30T05:59:00;15.40;99.90
18932;DHT22;9598;50.954;3.112;2022-10-30T06:04:03;15.50;99.90
18932;DHT22;9598;50.954;3.112;2022-10-30T06:09:06;15.50;99.90
18932;DHT22;9598;50.954;3.112;2022-10-30T06:14:17;15.40;99.90
18932;DHT22;9598;50.954;3.112;2022-10-30T06:19:24;15.40;99.90
18932;DHT22;9598;50.954;3.112;2022-10-30T06:24:34;15.40;99.90
18932;DHT22;9598;50.954;3.112;2022-10-30T06:29:44;15.40;99.90
18932;DHT22;9598;50.954;3.112;2022-10-30T06:34:46;15.40;99.90
18932;DHT22;9598;50.954;3.112;2022-10-30T06:39:51;15.40;99.90
18932;DHT22;9598;50.954;3.112;2022-10-30T06:45:14;15.40;99.90
18932;DHT22;9598;50.954;3.112;2022-10-30T06:50:18;15.40;99.90
18932;DHT22;9598;50.954;3.112;2022-10-30T06:55:22;15.40;99.90
18932;DHT22;9598;50.954;3.112;2022-10-30T07:00:34;15.40;99.90
18932;DHT22;9598;50.954;3.112;2022-10-30T07:05:59;15.30;99.90
18932;DHT22;9598;50.954;3.112;2022-10-30T07:11:02;15.40;99.90
18932;DHT22;9598;50.954;3.112;2022-10-30T07:16:30;15.30;99.90
18932;DHT22;9598;50.954;3.112;2022-10-30T07:21:33;15.30;99.90
18932;DHT22;9598;50.954;3.112;2022-10-30T07:26:40;15.30;99.90
18932;DHT22;9598;50.954;3.112;2022-10-30T07:32:01;15.40;99.90
18932;DHT22;9598;50.954;3.112;2022-10-30T07:37:21;15.40;99.90
18932;DHT22;9598;50.954;3.112;2022-10-30T07:42:40;15.40;99.90
18932;DHT22;9598;50.954;3.112;2022-10-30T07:47:42;15.50;99.90
18932;DHT22;9598;50.954;3.112;2022-10-30T07:52:51;15.50;99.90
18932;DHT22;9598;50.954;3.112;2022-10-30T07:57:59;15.50;99.90
18932;DHT22;9598;50.954;3.112;2022-10-30T08:03:20;15.60;99.90
18932;DHT22;9598;50.954;3.112;2022-10-30T08:08:32;15.70;99.90
18932;DHT22;9598;50.954;3.112;2022-10-30T08:13:54;15.70;99.90
18932;DHT22;9598;50.954;3.112;2022-10-30T08:18:57;15.70;99.90
18932;DHT22;9598;50.954;3.112;2022-10-30T08:23:59;15.80;99.90
18932;DHT22;9598;50.954;3.112;2022-10-30T08:29:05;15.80;99.90
18932;DHT22;9598;50.954;3.112;2022-10-30T08:34:08;15.90;99.90
18932;DHT22;9598;50.954;3.112;2022-10-30T08:39:30;15.90;99.90
18932;DHT22;9598;50.954;3.112;2022-10-30T08:44:54;15.90;99.90
18932;DHT22;9598;50.954;3.112;2022-10-30T08:50:14;16.10;99.90
18932;DHT22;9598;50.954;3.112;2022-10-30T08:55:17;16.10;99.90
18932;DHT22;9598;50.954;3.112;2022-10-30T09:00:21;16.20;99.90
18932;DHT22;9598;50.954;3.112;2022-10-30T09:05:57;16.30;99.90
18932;DHT22;9598;50.954;3.112;2022-10-30T09:11:08;16.40;99.90
18932;DHT22;9598;50.954;3.112;2022-10-30T09:16:12;16.50;99.90
18932;DHT22;9598;50.954;3.112;2022-10-30T09:21:14;16.60;99.90
18932;DHT22;9598;50.954;3.112;2022-10-30T09:26:20;16.80;99.90
18932;DHT22;9598;50.954;3.112;2022-10-30T09:31:42;16.90;99.90
18932;DHT22;9598;50.954;3.112;2022-10-30T09:36:49;17.10;99.90
18932;DHT22;9598;50.954;3.112;2022-10-30T09:42:10;17.20;99.90
18932;DHT22;9598;50.954;3.112;2022-10-30T09:47:27;17.30;99.90
18932;DHT22;9598;50.954;3.112;2022-10-30T09:52:38;17.50;99.90
18932;DHT22;9598;50.954;3.112;2022-10-30T09:57:47;17.60;99.90
18932;DHT22;9598;50.954;3.112;2022-10-30T10:03:02;17.80;99.90
18932;DHT22;9598;50.954;3.112;2022-10-30T10:08:19;17.90;99.90
18932;DHT22;9598;50.954;3.112;2022-10-30T10:13:46;18.00;99.90
18932;DHT22;9598;50.954;3.112;2022-10-30T10:18:56;18.00;99.90
18932;DHT22;9598;50.954;3.112;2022-10-30T10:24:01;18.10;99.90
18932;DHT22;9598;50.954;3.112;2022-10-30T10:29:19;18.10;99.90
18932;DHT22;9598;50.954;3.112;2022-10-30T10:34:38;18.10;99.90
18932;DHT22;9598;50.954;3.112;2022-10-30T10:39:57;18.20;99.90
18932;DHT22;9598;50.954;3.112;2022-10-30T10:45:15;18.20;99.90
18932;DHT22;9598;50.954;3.112;2022-10-30T10:50:24;18.30;99.90
18932;DHT22;9598;50.954;3.112;2022-10-30T10:55:27;18.30;99.90
18932;DHT22;9598;50.954;3.112;2022-10-30T11:00:32;18.40;99.90
18932;DHT22;9598;50.954;3.112;2022-10-30T11:05:40;18.40;99.90
18932;DHT22;9598;50.954;3.112;2022-10-30T11:10:44;18.40;99.90
18932;DHT22;9598;50.954;3.112;2022-10-30T11:15:54;18.50;99.90
18932;DHT22;9598;50.954;3.112;2022-10-30T11:21:02;18.60;99.90
18932;DHT22;9598;50.954;3.112;2022-10-30T11:26:28;18.70;99.90
18932;DHT22;9598;50.954;3.112;2022-10-30T11:31:33;18.70;99.90
18932;DHT22;9598;50.954;3.112;2022-10-30T11:36:38;18.80;99.90
18932;DHT22;9598;50.954;3.112;2022-10-30T11:41:40;18.90;99.90
18932;DHT22;9598;50.954;3.112;2022-10-30T11:46:42;19.00;99.90
18932;DHT22;9598;50.954;3.112;2022-10-30T11:51:46;19.00;99.90
18932;DHT22;9598;50.954;3.112;2022-10-30T11:56:49;19.10;99.90
18932;DHT22;9598;50.954;3.112;2022-10-30T12:02:00;19.10;99.90
18932;DHT22;9598;50.954;3.112;2022-10-30T12:07:18;19.10;99.90
18932;DHT22;9598;50.954;3.112;2022-10-30T12:12:22;19.20;99.90
18932;DHT22;9598;50.954;3.112;2022-10-30T12:17:25;19.10;99.90
18932;DHT22;9598;50.954;3.112;2022-10-30T12:22:31;19.20;99.90
18932;DHT22;9598;50.954;3.112;2022-10-30T12:27:35;19.20;99.90
18932;DHT22;9598;50.954;3.112;2022-10-30T12:32:45;19.20;99.90
18932;DHT22;9598;50.954;3.112;2022-10-30T12:37:52;19.10;99.90
18932;DHT22;9598;50.954;3.112;2022-10-30T12:43:00;19.00;99.90
18932;DHT22;9598;50.954;3.112;2022-10-30T12:48:11;19.00;99.90
18932;DHT22;9598;50.954;3.112;2022-10-30T12:53:25;18.90;99.90
18932;DHT22;9598;50.954;3.112;2022-10-30T12:58:35;18.80;99.90
18932;DHT22;9598;50.954;3.112;2022-10-30T13:03:41;18.80;99.90
18932;DHT22;9598;50.954;3.112;2022-10-30T13:08:58;18.80;99.90
18932;DHT22;9598;50.954;3.112;2022-10-30T13:14:08;18.70;99.90
18932;DHT22;9598;50.954;3.112;2022-10-30T13:19:12;18.70;99.90
18932;DHT22;9598;50.954;3.112;2022-10-30T13:24:20;18.70;99.90
18932;DHT22;9598;50.954;3.112;2022-10-30T13:29:27;18.70;99.90
18932;DHT22;9598;50.954;3.112;2022-10-30T13:34:38;18.60;99.90
18932;DHT22;9598;50.954;3.112;2022-10-30T13:39:57;18.60;99.90
18932;DHT22;9598;50.954;3.112;2022-10-30T13:45:20;18.60;99.90
18932;DHT22;9598;50.954;3.112;2022-10-30T13:50:39;18.60;99.90
18932;DHT22;9598;50.954;3.112;2022-10-30T13:55:48;18.50;99.90
18932;DHT22;9598;50.954;3.112;2022-10-30T14:00:58;18.60;99.90
18932;DHT22;9598;50.954;3.112;2022-10-30T14:06:08;18.70;99.90
18932;DHT22;9598;50.954;3.112;2022-10-30T14:11:13;18.70;99.90
18932;DHT22;9598;50.954;3.112;2022-10-30T14:16:33;18.70;99.90
18932;DHT22;9598;50.954;3.112;2022-10-30T14:21:56;18.70;99.90
18932;DHT22;9598;50.954;3.112;2022-10-30T14:27:10;18.80;99.90
18932;DHT22;9598;50.954;3.112;2022-10-30T14:32:34;18.80;99.90
18932;DHT22;9598;50.954;3.112;2022-10-30T14:37:53;18.70;99.90
18932;DHT22;9598;50.954;3.112;2022-10-30T14:42:59;18.70;99.90
18932;DHT22;9598;50.954;3.112;2022-10-30T14:48:11;18.70;99.90
18932;DHT22;9598;50.954;3.112;2022-10-30T14:53:26;18.70;99.90
18932;DHT22;9598;50.954;3.112;2022-10-30T14:58:33;18.70;99.90
18932;DHT22;9598;50.954;3.112;2022-10-30T15:03:46;18.70;99.90
18932;DHT22;9598;50.954;3.112;2022-10-30T15:09:09;18.70;99.90
18932;DHT22;9598;50.954;3.112;2022-10-30T15:14:25;18.70;99.90
18932;DHT22;9598;50.954;3.112;2022-10-30T15:19:30;18.50;99.90
18932;DHT22;9598;50.954;3.112;2022-10-30T15:24:34;18.50;99.90
18932;DHT22;9598;50.954;3.112;2022-10-30T15:29:38;18.50;99.90
18932;DHT22;9598;50.954;3.112;2022-10-30T15:34:51;18.50;99.90
18932;DHT22;9598;50.954;3.112;2022-10-30T15:40:11;18.50;99.90
18932;DHT22;9598;50.954;3.112;2022-10-30T15:45:20;18.40;99.90
18932;DHT22;9598;50.954;3.112;2022-10-30T15:50:22;18.40;99.90
18932;DHT22;9598;50.954;3.112;2022-10-30T15:55:27;18.30;99.90
18932;DHT22;9598;50.954;3.112;2022-10-30T16:00:33;18.20;99.90
18932;DHT22;9598;50.954;3.112;2022-10-30T16:05:35;18.20;99.90
18932;DHT22;9598;50.954;3.112;2022-10-30T16:10:38;18.10;99.90
18932;DHT22;9598;50.954;3.112;2022-10-30T16:15:44;18.10;99.90
18932;DHT22;9598;50.954;3.112;2022-10-30T16:20:49;18.10;99.90
18932;DHT22;9598;50.954;3.112;2022-10-30T16:25:56;18.10;99.90
18932;DHT22;9598;50.954;3.112;2022-10-30T16:31:01;18.10;99.90
18932;DHT22;9598;50.954;3.112;2022-10-30T16:36:04;18.00;99.90
18932;DHT22;9598;50.954;3.112;2022-10-30T16:41:08;18.00;99.90
18932;DHT22;9598;50.954;3.112;2022-10-30T16:46:34;17.90;99.90
18932;DHT22;9598;50.954;3.112;2022-10-30T16:51:39;17.90;99.90
18932;DHT22;9598;50.954;3.112;2022-10-30T16:56:44;17.80;99.90
18932;DHT22;9598;50.954;3.112;2022-10-30T17:01:54;17.70;99.90
18932;DHT22;9598;50.954;3.112;2022-10-30T17:07:13;17.70;99.90
18932;DHT22;9598;50.954;3.112;2022-10-30T17:12:20;17.60;99.90
18932;DHT22;9598;50.954;3.112;2022-10-30T17:17:28;17.60;99.90
18932;DHT22;9598;50.954;3.112;2022-10-30T17:22:31;17.70;99.90
18932;DHT22;9598;50.954;3.112;2022-10-30T17:27:45;17.70;99.90
18932;DHT22;9598;50.954;3.112;2022-10-30T17:32:52;17.70;99.90
18932;DHT22;9598;50.954;3.112;2022-10-30T17:37:54;17.70;99.90
18932;DHT22;9598;50.954;3.112;2022-10-30T17:42:56;17.60;99.90
18932;DHT22;9598;50.954;3.112;2022-10-30T17:48:00;17.50;99.90
18932;DHT22;9598;50.954;3.112;2022-10-30T17:53:02;17.50;99.90
18932;DHT22;9598;50.954;3.112;2022-10-30T17:58:04;17.40;99.90
18932;DHT22;9598;50.954;3.112;2022-10-30T18:03:07;17.40;99.90
18932;DHT22;9598;50.954;3.112;2022-10-30T18:08:09;17.40;99.90
18932;DHT22;9598;50.954;3.112;2022-10-30T18:13:11;17.30;99.90
18932;DHT22;9598;50.954;3.112;2022-10-30T18:18:15;17.30;99.90
18932;DHT22;9598;50.954;3.112;2022-10-30T18:23:18;17.20;99.90
18932;DHT22;9598;50.954;3.112;2022-10-30T18:28:21;17.10;99.90
18932;DHT22;9598;50.954;3.112;2022-10-30T18:33:24;17.00;99.90
18932;DHT22;9598;50.954;3.112;2022-10-30T18:38:26;16.90;99.90
18932;DHT22;9598;50.954;3.112;2022-10-30T18:43:28;16.90;99.90
18932;DHT22;9598;50.954;3.112;2022-10-30T18:48:32;16.90;99.90
18932;DHT22;9598;50.954;3.112;2022-10-30T18:53:34;16.90;99.90
18932;DHT22;9598;50.954;3.112;2022-10-30T18:58:36;16.90;99.90
18932;DHT22;9598;50.954;3.112;2022-10-30T19:03:39;16.90;99.90
18932;DHT22;9598;50.954;3.112;2022-10-30T19:08:41;16.90;99.90
18932;DHT22;9598;50.954;3.112;2022-10-30T19:13:44;16.90;99.90
18932;DHT22;9598;50.954;3.112;2022-10-30T19:18:47;16.80;99.90
18932;DHT22;9598;50.954;3.112;2022-10-30T19:23:49;16.70;99.90
18932;DHT22;9598;50.954;3.112;2022-10-30T19:28:51;16.60;99.90
18932;DHT22;9598;50.954;3.112;2022-10-30T19:33:55;16.40;99.90
18932;DHT22;9598;50.954;3.112;2022-10-30T19:38:57;16.40;99.90
18932;DHT22;9598;50.954;3.112;2022-10-30T19:43:59;16.40;99.90
18932;DHT22;9598;50.954;3.112;2022-10-30T19:49:11;16.30;99.90
18932;DHT22;9598;50.954;3.112;2022-10-30T19:54:15;16.30;99.90
18932;DHT22;9598;50.954;3.112;2022-10-30T19:59:17;16.30;99.90
18932;DHT22;9598;50.954;3.112;2022-10-30T20:04:21;16.30;99.90
18932;DHT22;9598;50.954;3.112;2022-10-30T20:09:23;16.20;99.90
18932;DHT22;9598;50.954;3.112;2022-10-30T20:14:25;16.20;99.90
18932;DHT22;9598;50.954;3.112;2022-10-30T20:19:29;16.10;99.90
18932;DHT22;9598;50.954;3.112;2022-10-30T20:24:31;16.00;99.90
18932;DHT22;9598;50.954;3.112;2022-10-30T20:29:34;15.90;99.90
18932;DHT22;9598;50.954;3.112;2022-10-30T20:34:39;15.80;99.90
18932;DHT22;9598;50.954;3.112;2022-10-30T20:39:41;15.80;99.90
18932;DHT22;9598;50.954;3.112;2022-10-30T20:44:43;15.70;99.90
18932;DHT22;9598;50.954;3.112;2022-10-30T20:49:47;15.60;99.90
18932;DHT22;9598;50.954;3.112;2022-10-30T20:54:49;15.60;99.90
18932;DHT22;9598;50.954;3.112;2022-10-30T20:59:51;15.60;99.90
18932;DHT22;9598;50.954;3.112;2022-10-30T21:04:54;15.50;99.90
18932;DHT22;9598;50.954;3.112;2022-10-30T21:09:56;15.40;99.90
18932;DHT22;9598;50.954;3.112;2022-10-30T21:14:58;15.30;99.90
18932;DHT22;9598;50.954;3.112;2022-10-30T21:20:04;15.20;99.90
18932;DHT22;9598;50.954;3.112;2022-10-30T21:25:06;15.20;99.90
18932;DHT22;9598;50.954;3.112;2022-10-30T21:30:09;15.20;99.90
18932;DHT22;9598;50.954;3.112;2022-10-30T21:35:13;15.10;99.90
18932;DHT22;9598;50.954;3.112;2022-10-30T21:40:15;15.10;99.90
18932;DHT22;9598;50.954;3.112;2022-10-30T21:45:17;15.00;99.90
18932;DHT22;9598;50.954;3.112;2022-10-30T21:50:20;15.00;99.90
18932;DHT22;9598;50.954;3.112;2022-10-30T21:55:22;15.00;99.90
18932;DHT22;9598;50.954;3.112;2022-10-30T22:00:24;15.00;99.90
18932;DHT22;9598;50.954;3.112;2022-10-30T22:05:30;15.00;99.90
18932;DHT22;9598;50.954;3.112;2022-10-30T22:10:32;14.90;99.90
18932;DHT22;9598;50.954;3.112;2022-10-30T22:15:34;14.90;99.90
18932;DHT22;9598;50.954;3.112;2022-10-30T22:20:38;14.90;99.90
18932;DHT22;9598;50.954;3.112;2022-10-30T22:25:40;14.90;99.90
18932;DHT22;9598;50.954;3.112;2022-10-30T22:30:41;14.90;99.90
18932;DHT22;9598;50.954;3.112;2022-10-30T22:35:45;14.90;99.90
18932;DHT22;9598;50.954;3.112;2022-10-30T22:40:48;14.90;99.90
18932;DHT22;9598;50.954;3.112;2022-10-30T22:45:52;14.80;99.90
18932;DHT22;9598;50.954;3.112;2022-10-30T22:50:57;14.80;99.90
18932;DHT22;9598;50.954;3.112;2022-10-30T22:56:09;14.80;99.90
18932;DHT22;9598;50.954;3.112;2022-10-30T23:01:12;14.80;99.90
18932;DHT22;9598;50.954;3.112;2022-10-30T23:06:15;14.70;99.90
18932;DHT22;9598;50.954;3.112;2022-10-30T23:11:18;14.70;99.90
18932;DHT22;9598;50.954;3.112;2022-10-30T23:16:21;14.70;99.90
18932;DHT22;9598;50.954;3.112;2022-10-30T23:21:26;14.70;99.90
18932;DHT22;9598;50.954;3.112;2022-10-30T23:26:30;14.70;99.90
18932;DHT22;9598;50.954;3.112;2022-10-30T23:31:35;14.60;99.90
18932;DHT22;9598;50.954;3.112;2022-10-30T23:36:38;14.60;99.90
18932;DHT22;9598;50.954;3.112;2022-10-30T23:41:41;14.60;99.90
18932;DHT22;9598;50.954;3.112;2022-10-30T23:46:43;14.60;99.90
18932;DHT22;9598;50.954;3.112;2022-10-30T23:51:46;14.60;99.90
18932;DHT22;9598;50.954;3.112;2022-10-30T23:56:48;14.60;99.90
